createdAt,value
2017-09-25T00:00:05.825Z,7.62
2017-09-25T00:02:33.433Z,7.78
2017-09-25T00:05:01.767Z,7.85
2017-09-25T00:07:29.381Z,8.40
2017-09-25T00:09:57.724Z,8.60
2017-09-25T00:12:25.300Z,9.45
2017-09-25T00:14:52.907Z,8.68
2017-09-25T00:17:20.483Z,8.68
2017-09-25T00:19:48.046Z,8.93
2017-09-25T00:22:15.679Z,8.52
2017-09-25T00:24:43.253Z,9.30
2017-09-25T00:27:10.826Z,9.45
2017-09-25T00:29:38.448Z,8.82
2017-09-25T00:32:06.073Z,10.00
2017-09-25T00:34:33.633Z,8.32
2017-09-25T00:37:01.245Z,9.55
2017-09-25T00:39:28.811Z,9.70
2017-09-25T00:41:56.418Z,9.40
2017-09-25T00:44:23.998Z,9.98
2017-09-25T00:46:51.609Z,9.15
2017-09-25T00:49:19.199Z,9.05
2017-09-25T00:51:46.821Z,8.77
2017-09-25T00:54:14.430Z,14.48
2017-09-25T00:56:42.005Z,12.43
2017-09-25T00:59:21.540Z,12.80
2017-09-25T01:02:01.043Z,11.12
2017-09-25T01:04:40.265Z,11.20
2017-09-25T01:07:07.913Z,9.38
2017-09-25T01:09:35.479Z,10.73
2017-09-25T01:12:03.047Z,10.93
2017-09-25T01:14:30.662Z,10.55
2017-09-25T01:16:58.278Z,9.70
2017-09-25T01:19:25.850Z,9.38
2017-09-25T01:21:53.426Z,10.18
2017-09-25T01:24:21.041Z,9.43
2017-09-25T01:26:48.611Z,8.10
2017-09-25T01:29:16.182Z,10.80
2017-09-25T01:31:43.788Z,9.25
2017-09-25T01:34:11.399Z,9.40
2017-09-25T01:36:38.978Z,9.45
2017-09-25T01:39:06.609Z,10.32
2017-09-25T01:41:34.206Z,11.10
2017-09-25T01:44:01.766Z,8.55
2017-09-25T01:46:29.387Z,10.05
2017-09-25T01:48:57.710Z,9.23
2017-09-25T01:51:25.339Z,9.82
2017-09-25T01:53:52.902Z,9.05
2017-09-25T01:56:20.471Z,10.40
2017-09-25T01:58:48.084Z,9.00
2017-09-25T02:01:15.673Z,8.15
2017-09-25T02:03:43.274Z,8.48
2017-09-25T02:06:10.845Z,9.90
2017-09-25T02:08:38.449Z,10.02
2017-09-25T02:11:06.038Z,8.95
2017-09-25T02:13:33.608Z,8.27
2017-09-25T02:16:01.211Z,9.82
2017-09-25T02:18:28.851Z,8.57
2017-09-25T02:20:56.402Z,8.55
2017-09-25T02:23:24.002Z,8.45
2017-09-25T02:25:52.371Z,8.30
2017-09-25T02:28:19.931Z,8.55
2017-09-25T02:30:47.558Z,8.07
2017-09-25T02:33:15.123Z,7.82
2017-09-25T02:35:42.710Z,8.65
2017-09-25T02:38:10.318Z,8.00
2017-09-25T02:40:37.927Z,7.05
2017-09-25T02:43:05.551Z,8.00
2017-09-25T02:45:33.126Z,8.07
2017-09-25T02:48:00.723Z,7.37
2017-09-25T02:50:28.346Z,8.15
2017-09-25T02:52:55.921Z,8.10
2017-09-25T02:55:23.491Z,8.45
2017-09-25T02:57:51.104Z,8.48
2017-09-25T03:00:18.721Z,7.60
2017-09-25T03:02:46.308Z,7.55
2017-09-25T03:05:14.656Z,7.40
2017-09-25T03:07:42.272Z,8.95
2017-09-25T03:10:09.836Z,8.95
2017-09-25T03:12:37.459Z,7.72
2017-09-25T03:15:05.022Z,8.43
2017-09-25T03:17:32.599Z,8.98
2017-09-25T03:20:00.965Z,9.52
2017-09-25T03:22:28.535Z,9.00
2017-09-25T03:24:56.904Z,7.82
2017-09-25T03:27:24.575Z,7.68
2017-09-25T03:29:52.906Z,7.85
2017-09-25T03:32:20.470Z,8.90
2017-09-25T03:34:48.083Z,8.00
2017-09-25T03:37:15.700Z,8.07
2017-09-25T03:39:43.285Z,8.27
2017-09-25T03:42:10.862Z,8.82
2017-09-25T03:44:39.306Z,8.57
2017-09-25T03:47:06.865Z,9.43
2017-09-25T03:49:34.424Z,7.55
2017-09-25T03:52:02.042Z,8.85
2017-09-25T03:54:29.647Z,8.85
2017-09-25T03:56:57.249Z,8.82
2017-09-25T03:59:25.582Z,8.68
2017-09-25T04:01:53.181Z,8.88
2017-09-25T04:04:21.527Z,8.77
2017-09-25T04:06:49.139Z,8.25
2017-09-25T04:09:17.471Z,8.80
2017-09-25T04:11:45.037Z,8.43
2017-09-25T04:14:12.647Z,8.70
2017-09-25T04:16:40.220Z,7.50
2017-09-25T04:19:07.832Z,8.10
2017-09-25T04:21:35.470Z,8.30
2017-09-25T04:24:03.066Z,7.65
2017-09-25T04:26:31.402Z,7.43
2017-09-25T04:28:59.313Z,7.28
2017-09-25T04:31:27.712Z,7.45
2017-09-25T04:33:55.295Z,8.57
2017-09-25T04:36:22.875Z,8.98
2017-09-25T04:38:50.484Z,8.18
2017-09-25T04:41:18.827Z,8.38
2017-09-25T04:43:46.440Z,7.90
2017-09-25T04:46:14.801Z,7.95
2017-09-25T04:48:43.206Z,9.18
2017-09-25T04:51:10.811Z,7.25
2017-09-25T04:53:38.393Z,7.30
2017-09-25T04:56:05.993Z,7.78
2017-09-25T04:58:33.582Z,7.87
2017-09-25T05:01:02.020Z,8.30
2017-09-25T05:03:30.387Z,9.23
2017-09-25T05:05:58.754Z,7.97
2017-09-25T05:08:26.333Z,8.13
2017-09-25T05:10:54.701Z,7.55
2017-09-25T05:13:23.048Z,7.80
2017-09-25T05:15:50.696Z,7.93
2017-09-25T05:18:18.266Z,8.30
2017-09-25T05:20:45.826Z,8.13
2017-09-25T05:23:13.540Z,8.93
2017-09-25T05:25:41.883Z,8.98
2017-09-25T05:28:09.455Z,9.10
2017-09-25T05:30:37.117Z,9.63
2017-09-25T05:33:04.675Z,9.10
2017-09-25T05:35:32.298Z,8.75
2017-09-25T05:38:00.630Z,8.52
2017-09-25T05:40:28.992Z,8.88
2017-09-25T05:42:56.598Z,8.90
2017-09-25T05:45:24.186Z,9.27
2017-09-25T05:47:51.746Z,8.88
2017-09-25T05:50:19.350Z,9.45
2017-09-25T05:52:46.954Z,9.90
2017-09-25T05:55:14.631Z,9.50
2017-09-25T05:57:43.088Z,9.75
2017-09-25T06:00:10.745Z,9.55
2017-09-25T06:02:39.686Z,10.18
2017-09-25T06:05:08.114Z,10.13
2017-09-25T06:07:36.462Z,9.50
2017-09-25T06:10:04.074Z,8.98
2017-09-25T06:12:31.678Z,10.13
2017-09-25T06:14:59.246Z,8.70
2017-09-25T06:17:26.845Z,9.70
2017-09-25T06:19:55.171Z,12.05
2017-09-25T06:22:22.761Z,11.77
2017-09-25T06:24:51.187Z,10.93
2017-09-25T06:27:18.770Z,13.68
2017-09-25T06:29:46.339Z,12.50
2017-09-25T06:32:13.955Z,17.10
2017-09-25T06:34:41.537Z,16.10
2017-09-25T06:37:09.185Z,15.02
2017-09-25T06:39:38.143Z,15.88
2017-09-25T06:42:06.611Z,16.05
2017-09-25T06:44:34.257Z,13.88
2017-09-25T06:47:01.825Z,13.75
2017-09-25T06:49:29.443Z,14.15
2017-09-25T06:51:57.031Z,12.10
2017-09-25T06:54:24.626Z,14.00
2017-09-25T06:56:52.218Z,15.30
2017-09-25T06:59:19.834Z,15.60
2017-09-25T07:01:47.454Z,12.98
2017-09-25T07:04:15.132Z,14.05
2017-09-25T07:06:42.712Z,15.73
2017-09-25T07:09:10.337Z,13.77
2017-09-25T07:11:37.890Z,13.73
2017-09-25T07:14:05.648Z,14.15
2017-09-25T07:16:33.368Z,16.08
2017-09-25T07:19:01.335Z,12.45
2017-09-25T07:21:29.845Z,14.55
2017-09-25T07:23:58.204Z,15.27
2017-09-25T07:26:25.831Z,14.82
2017-09-25T07:28:53.418Z,13.73
2017-09-25T07:31:20.997Z,14.00
2017-09-25T07:33:48.623Z,14.45
2017-09-25T07:36:16.206Z,14.40
2017-09-25T07:38:43.984Z,16.37
2017-09-25T07:41:11.554Z,13.95
2017-09-25T07:43:39.153Z,13.52
2017-09-25T07:46:06.769Z,14.45
2017-09-25T07:48:34.352Z,14.73
2017-09-25T07:51:02.744Z,16.20
2017-09-25T07:53:30.706Z,17.15
2017-09-25T07:55:58.323Z,16.67
2017-09-25T07:58:25.938Z,15.93
2017-09-25T08:00:53.601Z,15.73
2017-09-25T08:03:21.274Z,17.62
2017-09-25T08:05:48.912Z,16.27
2017-09-25T08:08:16.517Z,18.90
2017-09-25T08:10:44.087Z,15.63
2017-09-25T08:13:11.691Z,15.20
2017-09-25T08:15:40.082Z,14.77
2017-09-25T08:18:08.425Z,16.87
2017-09-25T08:20:36.005Z,16.17
2017-09-25T08:23:04.415Z,16.50
2017-09-25T08:25:32.025Z,14.93
2017-09-25T08:27:59.666Z,15.25
2017-09-25T08:30:27.274Z,13.82
2017-09-25T08:32:54.923Z,11.50
2017-09-25T08:35:22.550Z,12.70
2017-09-25T08:37:50.142Z,12.47
2017-09-25T08:40:18.566Z,12.47
2017-09-25T08:42:46.135Z,12.27
2017-09-25T08:45:13.735Z,12.20
2017-09-25T08:47:41.313Z,10.70
2017-09-25T08:50:09.746Z,11.53
2017-09-25T08:52:37.314Z,9.90
2017-09-25T08:55:05.663Z,8.67
2017-09-25T08:57:34.482Z,10.00
2017-09-25T09:00:03.812Z,9.17
2017-09-25T09:02:33.021Z,8.33
2017-09-25T09:05:01.273Z,7.10
2017-09-25T09:07:29.673Z,7.77
2017-09-25T09:09:57.278Z,8.47
2017-09-25T09:12:24.929Z,7.40
2017-09-25T09:15:03.923Z,8.50
2017-09-25T09:17:32.351Z,8.40
2017-09-25T09:19:59.987Z,8.80
2017-09-25T09:22:29.434Z,6.87
2017-09-25T09:24:57.067Z,6.10
2017-09-25T09:27:25.418Z,7.00
2017-09-25T09:29:52.973Z,6.80
2017-09-25T09:32:20.712Z,5.90
2017-09-25T09:34:48.287Z,5.80
2017-09-25T09:37:17.735Z,4.90
2017-09-25T09:39:49.102Z,5.43
2017-09-25T09:42:18.106Z,5.17
2017-09-25T09:44:45.782Z,5.27
2017-09-25T09:47:24.894Z,7.03
2017-09-25T09:49:52.481Z,9.40
2017-09-25T09:52:20.190Z,5.90
2017-09-25T09:54:47.881Z,7.20
2017-09-25T09:57:18.638Z,5.30
2017-09-25T09:59:46.299Z,6.10
2017-09-25T10:02:13.909Z,7.80
2017-09-25T10:04:41.483Z,5.80
2017-09-25T10:07:09.894Z,5.70
2017-09-25T10:09:37.463Z,5.23
2017-09-25T10:12:05.023Z,5.10
2017-09-25T10:14:32.639Z,6.33
2017-09-25T10:17:00.272Z,6.77
2017-09-25T10:19:27.834Z,5.47
2017-09-25T10:21:55.499Z,5.60
2017-09-25T10:24:27.099Z,7.00
2017-09-25T10:26:54.724Z,6.40
2017-09-25T10:29:22.304Z,9.00
2017-09-25T10:31:50.657Z,4.83
2017-09-25T10:34:18.327Z,5.03
2017-09-25T10:36:45.905Z,6.77
2017-09-25T10:39:14.358Z,8.43
2017-09-25T10:41:41.986Z,6.10
2017-09-25T10:44:09.581Z,5.47
2017-09-25T10:46:37.189Z,4.60
2017-09-25T10:49:04.800Z,6.03
2017-09-25T10:51:32.413Z,5.40
2017-09-25T10:54:00.071Z,7.40
2017-09-25T10:56:28.503Z,4.97
2017-09-25T10:58:56.125Z,5.60
2017-09-25T11:01:23.797Z,7.70
2017-09-25T11:03:51.439Z,5.43
2017-09-25T11:06:19.711Z,5.43
2017-09-25T11:08:48.354Z,4.90
2017-09-25T11:11:16.084Z,4.47
2017-09-25T11:13:43.699Z,5.63
2017-09-25T11:16:11.262Z,4.97
2017-09-25T11:18:38.850Z,5.60
2017-09-25T11:21:07.237Z,6.33
2017-09-25T11:23:34.867Z,6.57
2017-09-25T11:26:02.435Z,6.07
2017-09-25T11:28:30.083Z,6.00
2017-09-25T11:30:57.673Z,6.07
2017-09-25T11:33:26.000Z,4.97
2017-09-25T11:35:53.722Z,6.97
2017-09-25T11:38:21.633Z,5.50
2017-09-25T11:40:49.239Z,5.50
2017-09-25T11:43:18.431Z,6.43
2017-09-25T11:45:46.769Z,5.60
2017-09-25T11:48:14.433Z,5.13
2017-09-25T11:50:42.033Z,5.47
2017-09-25T11:53:09.592Z,5.20
2017-09-25T11:55:37.224Z,5.87
2017-09-25T11:58:04.833Z,4.90
2017-09-25T12:00:33.274Z,5.27
2017-09-25T12:03:00.913Z,4.57
2017-09-25T12:05:28.547Z,4.10
2017-09-25T12:07:56.115Z,8.40
2017-09-25T12:10:23.709Z,4.63
2017-09-25T12:12:51.321Z,3.80
2017-09-25T12:15:19.655Z,4.03
2017-09-25T12:17:47.259Z,5.03
2017-09-25T12:20:15.602Z,3.37
2017-09-25T12:22:43.286Z,4.30
2017-09-25T12:25:10.890Z,4.53
2017-09-25T12:27:38.538Z,3.53
2017-09-25T12:30:06.110Z,3.90
2017-09-25T12:32:33.719Z,3.60
2017-09-25T12:35:01.334Z,4.43
2017-09-25T12:37:28.942Z,3.77
2017-09-25T12:39:56.549Z,3.67
2017-09-25T12:42:24.197Z,3.80
2017-09-25T12:44:51.874Z,4.27
2017-09-25T12:47:19.487Z,4.40
2017-09-25T12:49:47.102Z,3.70
2017-09-25T12:52:14.717Z,4.20
2017-09-25T12:54:42.368Z,3.50
2017-09-25T12:57:09.952Z,4.33
2017-09-25T12:59:37.617Z,3.43
2017-09-25T13:02:05.985Z,4.03
2017-09-25T13:04:33.625Z,5.40
2017-09-25T13:07:01.274Z,5.17
2017-09-25T13:09:28.868Z,4.83
2017-09-25T13:11:56.480Z,5.23
2017-09-25T13:14:24.118Z,6.20
2017-09-25T13:16:52.528Z,5.00
2017-09-25T13:19:20.102Z,4.93
2017-09-25T13:21:47.678Z,4.97
2017-09-25T13:24:15.303Z,3.97
2017-09-25T13:26:43.038Z,4.53
2017-09-25T13:29:11.472Z,4.77
2017-09-25T13:31:39.058Z,5.17
2017-09-25T13:34:08.450Z,5.03
2017-09-25T13:36:36.272Z,4.63
2017-09-25T13:39:04.100Z,4.80
2017-09-25T13:41:31.728Z,4.57
2017-09-25T13:43:59.295Z,5.03
2017-09-25T13:46:26.862Z,4.47
2017-09-25T13:48:54.470Z,4.80
2017-09-25T13:51:22.811Z,4.50
2017-09-25T13:53:50.459Z,5.07
2017-09-25T13:56:18.033Z,5.83
2017-09-25T14:03:51.560Z,5.80
2017-09-25T14:06:19.188Z,5.60
2017-09-25T14:08:46.763Z,5.20
2017-09-25T14:11:14.357Z,5.90
2017-09-25T14:13:41.972Z,5.80
2017-09-25T14:16:09.569Z,6.00
2017-09-25T14:18:37.207Z,6.00
2017-09-25T14:21:04.840Z,6.40
2017-09-25T14:23:32.443Z,6.83
2017-09-25T14:26:00.064Z,5.80
2017-09-25T14:28:27.665Z,4.50
2017-09-25T14:30:55.331Z,5.73
2017-09-25T14:33:27.010Z,4.60
2017-09-25T14:35:54.573Z,6.10
2017-09-25T14:38:22.758Z,6.13
2017-09-25T14:40:50.337Z,6.67
2017-09-25T14:43:17.941Z,6.37
2017-09-25T14:45:45.553Z,5.43
2017-09-25T14:48:13.277Z,5.40
2017-09-25T14:50:40.903Z,6.30
2017-09-25T14:53:08.528Z,14.87
2017-09-25T14:55:36.091Z,6.90
2017-09-25T14:58:03.721Z,5.50
2017-09-25T15:00:31.334Z,6.40
2017-09-25T15:02:59.283Z,6.43
2017-09-25T15:05:27.667Z,5.93
2017-09-25T15:07:56.042Z,5.90
2017-09-25T15:10:23.739Z,6.23
2017-09-25T15:12:51.297Z,5.90
2017-09-25T15:15:18.907Z,6.03
2017-09-25T15:17:46.522Z,5.63
2017-09-25T15:20:14.148Z,10.07
2017-09-25T15:22:41.780Z,6.63
2017-09-25T15:25:11.043Z,6.17
2017-09-25T15:27:39.378Z,6.20
2017-09-25T15:30:18.747Z,6.50
2017-09-25T15:32:47.200Z,5.97
2017-09-25T15:35:22.271Z,5.90
2017-09-25T15:37:50.661Z,6.37
2017-09-25T15:40:18.305Z,5.50
2017-09-25T15:42:46.654Z,5.60
2017-09-25T15:45:14.382Z,5.93
2017-09-25T15:47:42.039Z,6.00
2017-09-25T15:50:09.661Z,6.30
2017-09-25T15:52:37.287Z,5.47
2017-09-25T15:55:04.926Z,5.20
2017-09-25T15:57:32.512Z,6.00
2017-09-25T16:00:00.142Z,9.67
2017-09-25T16:02:27.760Z,6.40
2017-09-25T16:04:55.431Z,5.07
2017-09-25T16:07:23.028Z,6.93
2017-09-25T16:09:50.614Z,5.50
2017-09-25T16:12:18.259Z,6.00
2017-09-25T16:14:45.917Z,6.87
2017-09-25T16:17:13.534Z,6.33
2017-09-25T16:19:41.920Z,13.90
2017-09-25T16:22:09.496Z,9.50
2017-09-25T16:24:37.103Z,7.40
2017-09-25T16:27:04.716Z,5.80
2017-09-25T16:29:32.465Z,6.13
2017-09-25T16:32:00.109Z,6.37
2017-09-25T16:34:27.765Z,5.67
2017-09-25T16:36:55.393Z,4.80
2017-09-25T16:39:23.002Z,10.40
2017-09-25T16:41:50.641Z,6.40
2017-09-25T16:44:18.976Z,5.73
2017-09-25T16:46:46.574Z,6.10
2017-09-25T16:49:14.251Z,6.03
2017-09-25T16:51:41.851Z,5.90
2017-09-25T16:54:09.476Z,5.37
2017-09-25T16:56:37.087Z,6.43
2017-09-25T16:59:04.671Z,5.70
2017-09-25T17:01:32.302Z,6.60
2017-09-25T17:03:59.879Z,6.40
2017-09-25T17:06:28.227Z,6.90
2017-09-25T17:08:56.680Z,9.73
2017-09-25T17:11:25.033Z,6.30
2017-09-25T17:13:52.662Z,5.90
2017-09-25T17:16:21.104Z,5.80
2017-09-25T17:18:48.695Z,6.60
2017-09-25T17:21:16.350Z,6.50
2017-09-25T17:23:43.923Z,7.00
2017-09-25T17:26:11.523Z,5.87
2017-09-25T17:28:39.224Z,6.90
2017-09-25T17:31:06.791Z,6.30
2017-09-25T17:33:34.415Z,9.53
2017-09-25T17:36:02.031Z,8.53
2017-09-25T17:38:30.443Z,7.30
2017-09-25T17:40:58.031Z,6.50
2017-09-25T17:43:25.605Z,6.63
2017-09-25T17:45:53.221Z,7.50
2017-09-25T17:48:20.835Z,7.77
2017-09-25T17:50:48.480Z,7.90
2017-09-25T17:53:16.101Z,9.20
2017-09-25T17:55:44.500Z,7.13
2017-09-25T17:58:12.080Z,7.53
2017-09-25T18:00:39.696Z,6.87
2017-09-25T18:03:08.089Z,7.33
2017-09-25T18:05:35.725Z,6.83
2017-09-25T18:08:03.303Z,6.67
2017-09-25T18:10:31.725Z,6.00
2017-09-25T18:12:59.342Z,7.40
2017-09-25T18:15:27.695Z,8.00
2017-09-25T18:17:55.316Z,7.33
2017-09-25T18:20:22.904Z,7.60
2017-09-25T18:22:50.519Z,7.40
2017-09-25T18:25:18.865Z,7.00
2017-09-25T18:27:46.474Z,7.10
2017-09-25T18:30:14.084Z,7.33
2017-09-25T18:32:41.660Z,7.20
2017-09-25T18:35:09.288Z,7.47
2017-09-25T18:37:36.939Z,6.97
2017-09-25T18:40:04.584Z,7.60
2017-09-25T18:42:32.243Z,8.37
2017-09-25T18:44:59.813Z,7.93
2017-09-25T18:47:27.434Z,7.40
2017-09-25T18:49:55.003Z,8.30
2017-09-25T18:52:23.338Z,6.83
2017-09-25T18:54:50.961Z,7.50
2017-09-25T18:57:18.600Z,7.60
2017-09-25T18:59:46.219Z,7.37
2017-09-25T19:02:13.800Z,6.82
2017-09-25T19:04:41.421Z,7.10
2017-09-25T19:07:09.038Z,6.90
2017-09-25T19:09:36.621Z,6.90
2017-09-25T19:12:04.250Z,8.20
2017-09-25T19:14:31.827Z,7.28
2017-09-25T19:17:00.199Z,7.10
2017-09-25T19:19:27.880Z,7.93
2017-09-25T19:21:56.253Z,8.18
2017-09-25T19:24:24.650Z,8.60
2017-09-25T19:26:52.287Z,7.85
2017-09-25T19:29:19.915Z,8.57
2017-09-25T19:31:47.522Z,7.67
2017-09-25T19:34:15.876Z,8.80
2017-09-25T19:36:43.494Z,11.45
2017-09-25T19:39:11.082Z,10.10
2017-09-25T19:41:38.763Z,10.15
2017-09-25T19:44:06.358Z,8.82
2017-09-25T19:46:34.749Z,8.65
2017-09-25T19:49:12.242Z,8.75
2017-09-25T19:51:39.863Z,10.02
2017-09-25T19:54:25.278Z,8.57
2017-09-25T19:57:02.838Z,8.82
2017-09-25T19:59:30.466Z,9.90
2017-09-25T20:01:58.082Z,11.25
2017-09-25T20:04:26.434Z,12.55
2017-09-25T20:06:54.102Z,10.90
2017-09-25T20:09:21.703Z,10.60
2017-09-25T20:11:54.007Z,11.60
2017-09-25T20:14:31.507Z,11.35
2017-09-25T20:17:19.974Z,10.50
2017-09-25T20:19:47.638Z,11.23
2017-09-25T20:22:15.226Z,11.00
2017-09-25T20:24:43.602Z,10.43
2017-09-25T20:27:11.979Z,10.43
2017-09-25T20:29:40.324Z,10.77
2017-09-25T20:32:07.965Z,11.82
2017-09-25T20:34:35.547Z,12.18
2017-09-25T20:37:03.135Z,12.85
2017-09-25T20:39:30.763Z,11.00
2017-09-25T20:42:09.166Z,11.68
2017-09-25T20:44:36.814Z,10.98
2017-09-25T20:47:04.404Z,12.18
2017-09-25T20:49:31.998Z,12.02
2017-09-25T20:51:59.643Z,10.82
2017-09-25T20:54:27.228Z,11.25
2017-09-25T20:56:55.668Z,10.65
2017-09-25T20:59:23.256Z,10.32
2017-09-25T21:01:50.852Z,11.90
2017-09-25T21:04:18.486Z,12.37
2017-09-25T21:06:46.146Z,13.25
2017-09-25T21:09:13.748Z,10.75
2017-09-25T21:11:41.364Z,13.07
2017-09-25T21:14:09.023Z,10.18
2017-09-25T21:16:36.651Z,11.23
2017-09-25T21:19:04.263Z,10.52
2017-09-25T21:21:31.909Z,11.00
2017-09-25T21:23:59.515Z,11.15
2017-09-25T21:26:29.650Z,11.57
2017-09-25T21:28:57.286Z,10.68
2017-09-25T21:31:25.671Z,10.88
2017-09-25T21:33:53.295Z,12.13
2017-09-25T21:36:20.944Z,11.30
2017-09-25T21:38:48.559Z,11.60
2017-09-25T21:41:16.135Z,12.43
2017-09-25T21:43:43.755Z,11.63
2017-09-25T21:46:12.224Z,11.52
2017-09-25T21:48:39.850Z,11.90
2017-09-25T21:51:07.428Z,12.60
2017-09-25T21:53:35.085Z,11.05
2017-09-25T21:56:02.669Z,11.88
2017-09-25T21:58:30.250Z,12.10
2017-09-25T22:00:57.892Z,12.75
2017-09-25T22:03:25.473Z,11.27
2017-09-25T22:05:53.072Z,11.55
2017-09-25T22:08:20.689Z,12.27
2017-09-25T22:10:48.278Z,10.25
2017-09-25T22:13:16.657Z,11.27
2017-09-25T22:15:44.995Z,10.85
2017-09-25T22:18:12.652Z,11.20
2017-09-25T22:20:40.222Z,11.60
2017-09-25T22:23:07.811Z,11.40
2017-09-25T22:25:36.216Z,11.63
2017-09-25T22:28:03.796Z,11.25
2017-09-25T22:30:31.388Z,12.05
2017-09-25T22:32:59.035Z,12.35
2017-09-25T22:35:26.660Z,11.38
2017-09-25T22:37:54.247Z,11.00
2017-09-25T22:40:21.876Z,12.88
2017-09-25T22:42:51.994Z,11.35
2017-09-25T22:45:20.338Z,14.75
2017-09-25T22:47:47.944Z,13.27
2017-09-25T22:50:15.522Z,11.60
2017-09-25T22:52:43.133Z,11.85
2017-09-25T22:55:10.706Z,10.60
2017-09-25T22:57:39.101Z,11.40
2017-09-25T23:00:06.709Z,11.12
2017-09-25T23:02:34.337Z,11.77
2017-09-25T23:05:07.465Z,11.63
2017-09-25T23:07:35.108Z,12.40
2017-09-25T23:10:02.715Z,11.10
2017-09-25T23:12:30.306Z,10.85
2017-09-25T23:14:57.938Z,9.77
2017-09-25T23:17:25.547Z,11.25
2017-09-25T23:19:53.127Z,10.15
2017-09-25T23:22:20.763Z,11.25
2017-09-25T23:24:48.375Z,10.55
2017-09-25T23:27:15.956Z,10.63
2017-09-25T23:30:04.066Z,11.05
2017-09-25T23:32:31.654Z,11.38
2017-09-25T23:35:00.043Z,11.65
2017-09-25T23:37:28.418Z,10.95
2017-09-25T23:39:56.757Z,11.95
2017-09-25T23:42:24.372Z,10.30
2017-09-25T23:44:52.723Z,11.10
2017-09-25T23:47:20.334Z,10.60
2017-09-25T23:49:47.961Z,11.00
2017-09-25T23:52:16.299Z,11.85
2017-09-25T23:54:43.870Z,9.93
2017-09-25T23:57:11.522Z,10.80
2017-09-25T23:59:39.099Z,11.20
